sensor_id;sensor_type;location;lat;lon;timestamp;pressure;altitude;pressure_sealevel;temperature;humidity
61436;BME280;47304;47.456;19.160;2023-03-03T00:00:42;100524.02;;;2.90;65.68
61436;BME280;47304;47.456;19.160;2023-03-03T00:03:11;100524.16;;;2.89;65.64
61436;BME280;47304;47.456;19.160;2023-03-03T00:05:40;100524.10;;;2.88;65.67
61436;BME280;47304;47.456;19.160;2023-03-03T00:08:07;100521.89;;;2.83;65.83
61436;BME280;47304;47.456;19.160;2023-03-03T00:10:35;100521.27;;;2.80;66.02
61436;BME280;47304;47.456;19.160;2023-03-03T00:13:01;100521.92;;;2.79;66.10
61436;BME280;47304;47.456;19.160;2023-03-03T00:15:29;100513.36;;;2.77;65.99
61436;BME280;47304;47.456;19.160;2023-03-03T00:17:57;100513.11;;;2.75;65.99
61436;BME280;47304;47.456;19.160;2023-03-03T00:20:35;100516.15;;;2.72;66.28
61436;BME280;47304;47.456;19.160;2023-03-03T00:25:58;100513.08;;;2.68;66.34
61436;BME280;47304;47.456;19.160;2023-03-03T00:28:30;100511.27;;;2.66;66.32
61436;BME280;47304;47.456;19.160;2023-03-03T00:31:01;100514.39;;;2.66;66.16
61436;BME280;47304;47.456;19.160;2023-03-03T00:33:33;100511.93;;;2.64;66.22
61436;BME280;47304;47.456;19.160;2023-03-03T00:38:35;100511.76;;;2.60;66.57
61436;BME280;47304;47.456;19.160;2023-03-03T00:41:06;100509.64;;;2.58;66.49
61436;BME280;47304;47.456;19.160;2023-03-03T00:43:36;100509.29;;;2.58;66.51
61436;BME280;47304;47.456;19.160;2023-03-03T00:46:03;100511.67;;;2.57;66.53
61436;BME280;47304;47.456;19.160;2023-03-03T00:48:41;100510.47;;;2.57;66.76
61436;BME280;47304;47.456;19.160;2023-03-03T00:51:37;100508.48;;;2.55;66.61
61436;BME280;47304;47.456;19.160;2023-03-03T00:54:03;100506.06;;;2.55;66.68
61436;BME280;47304;47.456;19.160;2023-03-03T00:56:30;100501.60;;;2.56;66.69
61436;BME280;47304;47.456;19.160;2023-03-03T00:58:56;100502.71;;;2.59;66.95
61436;BME280;47304;47.456;19.160;2023-03-03T01:01:23;100502.08;;;2.60;66.91
61436;BME280;47304;47.456;19.160;2023-03-03T01:03:49;100499.19;;;2.61;66.94
61436;BME280;47304;47.456;19.160;2023-03-03T01:06:16;100499.23;;;2.62;67.16
61436;BME280;47304;47.456;19.160;2023-03-03T01:08:42;100493.34;;;2.62;67.16
61436;BME280;47304;47.456;19.160;2023-03-03T01:11:15;100489.70;;;2.62;67.04
61436;BME280;47304;47.456;19.160;2023-03-03T01:13:45;100488.28;;;2.61;67.28
61436;BME280;47304;47.456;19.160;2023-03-03T01:16:12;100484.54;;;2.63;67.51
61436;BME280;47304;47.456;19.160;2023-03-03T01:18:39;100485.21;;;2.62;67.56
61436;BME280;47304;47.456;19.160;2023-03-03T01:21:07;100484.88;;;2.62;67.53
61436;BME280;47304;47.456;19.160;2023-03-03T01:23:33;100482.50;;;2.64;67.51
61436;BME280;47304;47.456;19.160;2023-03-03T01:26:01;100482.38;;;2.65;67.36
61436;BME280;47304;47.456;19.160;2023-03-03T01:28:27;100481.89;;;2.67;67.37
61436;BME280;47304;47.456;19.160;2023-03-03T01:30:54;100480.70;;;2.67;67.41
61436;BME280;47304;47.456;19.160;2023-03-03T01:33:20;100470.98;;;2.67;67.51
61436;BME280;47304;47.456;19.160;2023-03-03T01:35:47;100472.68;;;2.65;67.54
61436;BME280;47304;47.456;19.160;2023-03-03T01:38:14;100466.26;;;2.64;67.78
61436;BME280;47304;47.456;19.160;2023-03-03T01:40:41;100464.21;;;2.65;67.78
61436;BME280;47304;47.456;19.160;2023-03-03T01:43:07;100462.15;;;2.66;67.76
61436;BME280;47304;47.456;19.160;2023-03-03T01:48:16;100460.35;;;2.69;67.75
61436;BME280;47304;47.456;19.160;2023-03-03T01:50:48;100459.21;;;2.72;67.72
61436;BME280;47304;47.456;19.160;2023-03-03T01:53:27;100460.02;;;2.75;67.71
61436;BME280;47304;47.456;19.160;2023-03-03T01:55:56;100456.91;;;2.75;67.79
61436;BME280;47304;47.456;19.160;2023-03-03T01:58:27;100458.53;;;2.77;67.70
61436;BME280;47304;47.456;19.160;2023-03-03T02:01:00;100458.79;;;2.80;67.64
61436;BME280;47304;47.456;19.160;2023-03-03T02:03:28;100458.19;;;2.82;67.61
61436;BME280;47304;47.456;19.160;2023-03-03T02:05:58;100461.22;;;2.85;67.67
61436;BME280;47304;47.456;19.160;2023-03-03T02:08:30;100457.53;;;2.89;67.65
61436;BME280;47304;47.456;19.160;2023-03-03T02:10:59;100457.29;;;2.92;67.45
61436;BME280;47304;47.456;19.160;2023-03-03T02:13:26;100457.74;;;2.96;67.40
61436;BME280;47304;47.456;19.160;2023-03-03T02:15:52;100454.88;;;2.99;67.61
61436;BME280;47304;47.456;19.160;2023-03-03T02:18:19;100451.62;;;2.99;67.61
61436;BME280;47304;47.456;19.160;2023-03-03T02:23:37;100452.74;;;3.02;67.30
61436;BME280;47304;47.456;19.160;2023-03-03T02:26:11;100449.27;;;3.02;67.42
61436;BME280;47304;47.456;19.160;2023-03-03T02:28:39;100444.41;;;3.01;67.43
61436;BME280;47304;47.456;19.160;2023-03-03T02:31:11;100449.98;;;3.02;67.38
61436;BME280;47304;47.456;19.160;2023-03-03T02:33:43;100450.48;;;3.01;67.20
61436;BME280;47304;47.456;19.160;2023-03-03T02:36:12;100448.92;;;3.02;67.23
61436;BME280;47304;47.456;19.160;2023-03-03T02:41:53;100443.77;;;2.97;67.15
61436;BME280;47304;47.456;19.160;2023-03-03T02:44:22;100446.29;;;2.95;67.39
61436;BME280;47304;47.456;19.160;2023-03-03T02:46:51;100441.38;;;2.92;67.31
61436;BME280;47304;47.456;19.160;2023-03-03T02:49:23;100442.34;;;2.90;67.36
61436;BME280;47304;47.456;19.160;2023-03-03T02:51:50;100442.78;;;2.88;67.37
61436;BME280;47304;47.456;19.160;2023-03-03T02:54:19;100434.95;;;2.86;67.41
61436;BME280;47304;47.456;19.160;2023-03-03T02:56:47;100436.98;;;2.85;67.40
61436;BME280;47304;47.456;19.160;2023-03-03T02:59:14;100435.05;;;2.84;67.58
61436;BME280;47304;47.456;19.160;2023-03-03T03:01:41;100427.08;;;2.84;67.72
61436;BME280;47304;47.456;19.160;2023-03-03T03:04:27;100427.61;;;2.85;67.88
61436;BME280;47304;47.456;19.160;2023-03-03T03:06:54;100424.56;;;2.86;67.90
61436;BME280;47304;47.456;19.160;2023-03-03T03:09:22;100426.39;;;2.89;67.98
61436;BME280;47304;47.456;19.160;2023-03-03T03:11:49;100421.64;;;2.92;68.07
61436;BME280;47304;47.456;19.160;2023-03-03T03:14:16;100424.84;;;2.95;67.92
61436;BME280;47304;47.456;19.160;2023-03-03T03:16:42;100419.36;;;2.97;68.00
61436;BME280;47304;47.456;19.160;2023-03-03T03:19:09;100417.05;;;3.01;68.17
61436;BME280;47304;47.456;19.160;2023-03-03T03:21:36;100414.96;;;3.06;68.26
61436;BME280;47304;47.456;19.160;2023-03-03T03:24:02;100414.23;;;3.10;68.34
61436;BME280;47304;47.456;19.160;2023-03-03T03:26:29;100413.17;;;3.16;68.25
61436;BME280;47304;47.456;19.160;2023-03-03T03:28:55;100412.81;;;3.21;68.39
61436;BME280;47304;47.456;19.160;2023-03-03T03:31:22;100413.58;;;3.23;68.35
61436;BME280;47304;47.456;19.160;2023-03-03T03:33:48;100410.89;;;3.26;68.39
61436;BME280;47304;47.456;19.160;2023-03-03T03:36:15;100406.33;;;3.30;68.39
61436;BME280;47304;47.456;19.160;2023-03-03T03:38:42;100406.58;;;3.32;68.49
61436;BME280;47304;47.456;19.160;2023-03-03T03:41:10;100399.91;;;3.35;68.45
61436;BME280;47304;47.456;19.160;2023-03-03T03:43:37;100397.50;;;3.36;68.57
61436;BME280;47304;47.456;19.160;2023-03-03T03:46:04;100395.78;;;3.36;68.62
61436;BME280;47304;47.456;19.160;2023-03-03T03:48:31;100393.36;;;3.37;68.71
61436;BME280;47304;47.456;19.160;2023-03-03T03:50:57;100393.73;;;3.37;68.70
61436;BME280;47304;47.456;19.160;2023-03-03T03:53:24;100390.48;;;3.39;68.73
61436;BME280;47304;47.456;19.160;2023-03-03T03:55:50;100391.23;;;3.41;68.81
61436;BME280;47304;47.456;19.160;2023-03-03T03:58:17;100389.35;;;3.41;68.77
61436;BME280;47304;47.456;19.160;2023-03-03T04:00:45;100389.02;;;3.42;68.77
61436;BME280;47304;47.456;19.160;2023-03-03T04:03:11;100386.83;;;3.44;68.77
61436;BME280;47304;47.456;19.160;2023-03-03T04:05:38;100386.73;;;3.47;68.86
61436;BME280;47304;47.456;19.160;2023-03-03T04:08:05;100386.10;;;3.49;68.95
61436;BME280;47304;47.456;19.160;2023-03-03T04:10:32;100385.95;;;3.50;68.93
61436;BME280;47304;47.456;19.160;2023-03-03T04:12:59;100388.10;;;3.52;68.85
61436;BME280;47304;47.456;19.160;2023-03-03T04:15:25;100385.27;;;3.56;68.95
61436;BME280;47304;47.456;19.160;2023-03-03T04:17:52;100384.11;;;3.58;68.92
61436;BME280;47304;47.456;19.160;2023-03-03T04:20:18;100380.70;;;3.60;68.94
61436;BME280;47304;47.456;19.160;2023-03-03T04:22:45;100376.40;;;3.62;68.90
61436;BME280;47304;47.456;19.160;2023-03-03T04:25:14;100379.06;;;3.64;68.90
61436;BME280;47304;47.456;19.160;2023-03-03T04:27:41;100376.77;;;3.68;68.94
61436;BME280;47304;47.456;19.160;2023-03-03T04:30:09;100377.83;;;3.75;68.85
61436;BME280;47304;47.456;19.160;2023-03-03T04:32:36;100380.43;;;3.82;68.92
61436;BME280;47304;47.456;19.160;2023-03-03T04:35:02;100383.71;;;3.88;68.74
61436;BME280;47304;47.456;19.160;2023-03-03T04:37:35;100380.36;;;3.93;68.64
61436;BME280;47304;47.456;19.160;2023-03-03T04:40:06;100381.34;;;3.97;68.55
61436;BME280;47304;47.456;19.160;2023-03-03T04:42:33;100376.74;;;4.00;68.47
61436;BME280;47304;47.456;19.160;2023-03-03T04:44:59;100377.48;;;4.01;68.54
61436;BME280;47304;47.456;19.160;2023-03-03T04:47:26;100378.56;;;4.03;68.52
61436;BME280;47304;47.456;19.160;2023-03-03T04:49:53;100371.50;;;4.05;68.51
61436;BME280;47304;47.456;19.160;2023-03-03T04:52:19;100369.62;;;4.05;68.47
61436;BME280;47304;47.456;19.160;2023-03-03T04:54:46;100372.20;;;4.05;68.36
61436;BME280;47304;47.456;19.160;2023-03-03T04:57:12;100373.94;;;4.05;68.37
61436;BME280;47304;47.456;19.160;2023-03-03T04:59:39;100370.12;;;4.05;68.45
61436;BME280;47304;47.456;19.160;2023-03-03T05:02:05;100370.48;;;4.05;68.47
61436;BME280;47304;47.456;19.160;2023-03-03T05:04:32;100379.83;;;4.05;68.38
61436;BME280;47304;47.456;19.160;2023-03-03T05:06:59;100381.31;;;4.02;68.42
61436;BME280;47304;47.456;19.160;2023-03-03T05:09:25;100382.96;;;3.99;68.51
61436;BME280;47304;47.456;19.160;2023-03-03T05:11:52;100386.20;;;3.97;68.47
61436;BME280;47304;47.456;19.160;2023-03-03T05:14:19;100382.73;;;3.97;68.56
61436;BME280;47304;47.456;19.160;2023-03-03T05:16:45;100383.95;;;3.97;68.57
61436;BME280;47304;47.456;19.160;2023-03-03T05:19:12;100380.83;;;3.97;68.57
61436;BME280;47304;47.456;19.160;2023-03-03T05:21:38;100382.79;;;3.99;68.73
61436;BME280;47304;47.456;19.160;2023-03-03T05:24:05;100381.15;;;4.02;68.65
61436;BME280;47304;47.456;19.160;2023-03-03T05:26:31;100381.20;;;4.05;68.67
61436;BME280;47304;47.456;19.160;2023-03-03T05:28:58;100381.80;;;4.08;68.65
61436;BME280;47304;47.456;19.160;2023-03-03T05:31:24;100383.97;;;4.12;68.47
61436;BME280;47304;47.456;19.160;2023-03-03T05:33:52;100382.78;;;4.12;68.05
61436;BME280;47304;47.456;19.160;2023-03-03T05:36:18;100390.40;;;4.12;67.81
61436;BME280;47304;47.456;19.160;2023-03-03T05:38:45;100391.24;;;4.11;67.77
61436;BME280;47304;47.456;19.160;2023-03-03T05:41:11;100394.63;;;4.08;67.68
61436;BME280;47304;47.456;19.160;2023-03-03T05:43:38;100394.71;;;4.04;67.73
61436;BME280;47304;47.456;19.160;2023-03-03T05:46:05;100395.14;;;4.00;67.76
61436;BME280;47304;47.456;19.160;2023-03-03T05:48:31;100396.48;;;3.99;67.79
61436;BME280;47304;47.456;19.160;2023-03-03T05:50:58;100396.81;;;3.98;67.83
61436;BME280;47304;47.456;19.160;2023-03-03T05:53:26;100396.48;;;3.99;67.91
61436;BME280;47304;47.456;19.160;2023-03-03T05:55:53;100395.58;;;3.98;67.79
61436;BME280;47304;47.456;19.160;2023-03-03T05:58:20;100397.66;;;3.98;68.02
61436;BME280;47304;47.456;19.160;2023-03-03T06:00:46;100401.00;;;3.99;67.92
61436;BME280;47304;47.456;19.160;2023-03-03T06:03:13;100400.37;;;4.02;67.98
61436;BME280;47304;47.456;19.160;2023-03-03T06:05:39;100401.99;;;4.04;67.95
61436;BME280;47304;47.456;19.160;2023-03-03T06:08:06;100402.77;;;4.07;67.72
61436;BME280;47304;47.456;19.160;2023-03-03T06:10:32;100397.98;;;4.10;67.69
61436;BME280;47304;47.456;19.160;2023-03-03T06:12:59;100401.74;;;4.15;67.78
61436;BME280;47304;47.456;19.160;2023-03-03T06:15:25;100395.44;;;4.19;67.84
61436;BME280;47304;47.456;19.160;2023-03-03T06:17:52;100403.20;;;4.24;67.97
61436;BME280;47304;47.456;19.160;2023-03-03T06:20:19;100403.51;;;4.29;67.64
61436;BME280;47304;47.456;19.160;2023-03-03T06:22:45;100405.02;;;4.34;67.64
61436;BME280;47304;47.456;19.160;2023-03-03T06:25:12;100405.90;;;4.42;67.75
61436;BME280;47304;47.456;19.160;2023-03-03T06:27:38;100406.11;;;4.51;67.63
61436;BME280;47304;47.456;19.160;2023-03-03T06:30:05;100410.34;;;4.59;67.29
61436;BME280;47304;47.456;19.160;2023-03-03T06:32:32;100411.02;;;4.66;67.12
61436;BME280;47304;47.456;19.160;2023-03-03T06:34:59;100410.02;;;4.76;66.94
61436;BME280;47304;47.456;19.160;2023-03-03T06:37:25;100412.20;;;4.87;66.79
61436;BME280;47304;47.456;19.160;2023-03-03T06:39:52;100413.11;;;4.97;66.58
61436;BME280;47304;47.456;19.160;2023-03-03T06:42:18;100414.89;;;5.06;66.24
61436;BME280;47304;47.456;19.160;2023-03-03T06:44:45;100414.16;;;5.13;66.11
61436;BME280;47304;47.456;19.160;2023-03-03T06:47:12;100414.30;;;5.19;65.69
61436;BME280;47304;47.456;19.160;2023-03-03T06:49:38;100414.48;;;5.20;65.55
61436;BME280;47304;47.456;19.160;2023-03-03T06:52:18;100417.66;;;5.22;65.48
61436;BME280;47304;47.456;19.160;2023-03-03T06:54:45;100422.92;;;5.24;65.34
61436;BME280;47304;47.456;19.160;2023-03-03T06:57:19;100421.71;;;5.23;65.32
61436;BME280;47304;47.456;19.160;2023-03-03T06:59:51;100426.64;;;5.27;65.44
61436;BME280;47304;47.456;19.160;2023-03-03T07:02:18;100426.41;;;5.33;65.40
61436;BME280;47304;47.456;19.160;2023-03-03T07:04:45;100431.94;;;5.39;65.32
61436;BME280;47304;47.456;19.160;2023-03-03T07:07:21;100429.46;;;5.45;65.13
61436;BME280;47304;47.456;19.160;2023-03-03T07:09:52;100433.95;;;5.52;65.32
61436;BME280;47304;47.456;19.160;2023-03-03T07:12:22;100434.09;;;5.58;65.00
61436;BME280;47304;47.456;19.160;2023-03-03T07:14:51;100439.12;;;5.66;64.93
61436;BME280;47304;47.456;19.160;2023-03-03T07:17:23;100442.59;;;5.75;64.79
61436;BME280;47304;47.456;19.160;2023-03-03T07:19:51;100440.02;;;5.85;64.61
61436;BME280;47304;47.456;19.160;2023-03-03T07:22:26;100438.41;;;5.92;64.56
61436;BME280;47304;47.456;19.160;2023-03-03T07:24:54;100443.13;;;6.01;64.49
61436;BME280;47304;47.456;19.160;2023-03-03T07:27:24;100444.83;;;6.07;64.41
61436;BME280;47304;47.456;19.160;2023-03-03T07:29:53;100450.70;;;6.14;64.03
61436;BME280;47304;47.456;19.160;2023-03-03T07:32:24;100451.52;;;6.21;63.92
61436;BME280;47304;47.456;19.160;2023-03-03T07:34:53;100447.85;;;6.30;63.82
61436;BME280;47304;47.456;19.160;2023-03-03T07:37:49;100449.17;;;6.35;63.72
61436;BME280;47304;47.456;19.160;2023-03-03T07:40:50;100448.02;;;6.39;63.30
61436;BME280;47304;47.456;19.160;2023-03-03T07:48:38;100454.89;;;6.55;62.85
61436;BME280;47304;47.456;19.160;2023-03-03T07:51:25;100453.40;;;6.59;62.99
61436;BME280;47304;47.456;19.160;2023-03-03T07:53:59;100454.43;;;6.68;62.81
61436;BME280;47304;47.456;19.160;2023-03-03T07:56:33;100453.38;;;6.78;62.56
61436;BME280;47304;47.456;19.160;2023-03-03T07:59:08;100454.70;;;6.85;62.29
61436;BME280;47304;47.456;19.160;2023-03-03T08:01:45;100452.16;;;6.88;62.05
61436;BME280;47304;47.456;19.160;2023-03-03T08:04:18;100448.17;;;6.91;61.96
61436;BME280;47304;47.456;19.160;2023-03-03T08:06:48;100449.48;;;6.96;61.82
61436;BME280;47304;47.456;19.160;2023-03-03T08:14:15;100451.06;;;7.08;61.45
61436;BME280;47304;47.456;19.160;2023-03-03T08:16:45;100447.75;;;7.20;61.53
61436;BME280;47304;47.456;19.160;2023-03-03T08:19:12;100447.04;;;7.30;61.51
61436;BME280;47304;47.456;19.160;2023-03-03T08:21:42;100447.86;;;7.41;61.18
61436;BME280;47304;47.456;19.160;2023-03-03T08:24:09;100443.42;;;7.48;60.77
61436;BME280;47304;47.456;19.160;2023-03-03T08:26:36;100441.55;;;7.52;60.61
61436;BME280;47304;47.456;19.160;2023-03-03T08:29:03;100441.96;;;7.55;60.60
61436;BME280;47304;47.456;19.160;2023-03-03T08:31:30;100439.75;;;7.59;60.76
61436;BME280;47304;47.456;19.160;2023-03-03T08:34:07;100442.30;;;7.69;60.66
61436;BME280;47304;47.456;19.160;2023-03-03T08:36:34;100443.81;;;7.79;60.48
61436;BME280;47304;47.456;19.160;2023-03-03T08:39:01;100443.70;;;7.83;60.51
61436;BME280;47304;47.456;19.160;2023-03-03T08:41:27;100445.48;;;7.87;60.59
61436;BME280;47304;47.456;19.160;2023-03-03T08:43:54;100440.84;;;7.91;60.49
61436;BME280;47304;47.456;19.160;2023-03-03T08:46:20;100442.63;;;7.96;60.75
61436;BME280;47304;47.456;19.160;2023-03-03T08:48:47;100444.59;;;8.00;60.82
61436;BME280;47304;47.456;19.160;2023-03-03T08:51:13;100440.98;;;8.06;60.87
61436;BME280;47304;47.456;19.160;2023-03-03T08:53:40;100444.38;;;8.12;60.71
61436;BME280;47304;47.456;19.160;2023-03-03T08:56:06;100441.11;;;8.16;60.57
61436;BME280;47304;47.456;19.160;2023-03-03T08:58:33;100442.17;;;8.19;60.59
61436;BME280;47304;47.456;19.160;2023-03-03T09:01:02;100438.25;;;8.27;60.64
61436;BME280;47304;47.456;19.160;2023-03-03T09:03:29;100433.09;;;8.35;60.47
61436;BME280;47304;47.456;19.160;2023-03-03T09:05:55;100432.09;;;8.41;60.37
61436;BME280;47304;47.456;19.160;2023-03-03T09:08:22;100438.24;;;8.45;60.35
61436;BME280;47304;47.456;19.160;2023-03-03T09:10:49;100440.25;;;8.50;60.18
61436;BME280;47304;47.456;19.160;2023-03-03T09:13:17;100439.91;;;8.52;59.92
61436;BME280;47304;47.456;19.160;2023-03-03T09:15:44;100438.71;;;8.55;59.91
61436;BME280;47304;47.456;19.160;2023-03-03T09:20:46;100441.34;;;8.55;60.03
61436;BME280;47304;47.456;19.160;2023-03-03T09:25:50;100438.94;;;8.61;59.83
61436;BME280;47304;47.456;19.160;2023-03-03T09:28:28;100435.50;;;8.67;59.69
61436;BME280;47304;47.456;19.160;2023-03-03T09:31:00;100437.02;;;8.81;59.33
61436;BME280;47304;47.456;19.160;2023-03-03T09:33:30;100433.99;;;8.97;59.01
61436;BME280;47304;47.456;19.160;2023-03-03T09:36:26;100436.95;;;9.24;58.52
61436;BME280;47304;47.456;19.160;2023-03-03T09:38:55;100430.33;;;9.57;57.63
61436;BME280;47304;47.456;19.160;2023-03-03T09:54:48;100428.95;;;10.22;55.84
61436;BME280;47304;47.456;19.160;2023-03-03T10:03:24;100425.00;;;10.56;54.84
61436;BME280;47304;47.456;19.160;2023-03-03T10:06:02;100426.55;;;10.97;53.95
61436;BME280;47304;47.456;19.160;2023-03-03T10:14:21;100414.16;;;13.43;48.35
61436;BME280;47304;47.456;19.160;2023-03-03T10:19:29;100399.63;;;17.23;42.57
61436;BME280;47304;47.456;19.160;2023-03-03T10:25:00;100387.63;;;22.01;34.83
61436;BME280;47304;47.456;19.160;2023-03-03T10:30:10;100379.55;;;25.59;26.40
61436;BME280;47304;47.456;19.160;2023-03-03T10:41:33;100363.87;;;30.90;20.65
61436;BME280;47304;47.456;19.160;2023-03-03T10:47:36;100360.33;;;30.52;20.28
61436;BME280;47304;47.456;19.160;2023-03-03T10:56:06;100360.02;;;26.96;22.45
61436;BME280;47304;47.456;19.160;2023-03-03T10:59:00;100361.80;;;25.68;23.56
61436;BME280;47304;47.456;19.160;2023-03-03T11:01:48;100361.02;;;24.63;24.74
61436;BME280;47304;47.456;19.160;2023-03-03T11:04:58;100358.19;;;24.16;25.36
61436;BME280;47304;47.456;19.160;2023-03-03T11:07:57;100355.02;;;24.70;25.24
61436;BME280;47304;47.456;19.160;2023-03-03T11:13:09;100342.09;;;29.30;21.20
61436;BME280;47304;47.456;19.160;2023-03-03T11:21:50;100332.57;;;30.69;19.19
61436;BME280;47304;47.456;19.160;2023-03-03T11:30:07;100303.91;;;35.08;15.88
61436;BME280;47304;47.456;19.160;2023-03-03T11:32:47;100307.23;;;35.92;14.87
61436;BME280;47304;47.456;19.160;2023-03-03T11:38:18;100299.88;;;35.82;14.60
61436;BME280;47304;47.456;19.160;2023-03-03T11:40:55;100295.84;;;36.06;14.53
61436;BME280;47304;47.456;19.160;2023-03-03T11:43:30;100288.89;;;36.18;14.19
61436;BME280;47304;47.456;19.160;2023-03-03T11:46:24;100294.73;;;36.18;14.27
61436;BME280;47304;47.456;19.160;2023-03-03T11:49:02;100290.02;;;36.06;14.28
61436;BME280;47304;47.456;19.160;2023-03-03T11:51:43;100287.79;;;34.77;14.88
61436;BME280;47304;47.456;19.160;2023-03-03T11:56:49;100282.06;;;30.94;17.79
61436;BME280;47304;47.456;19.160;2023-03-03T11:59:36;100287.55;;;29.12;19.04
61436;BME280;47304;47.456;19.160;2023-03-03T12:05:11;100288.20;;;25.69;22.42
61436;BME280;47304;47.456;19.160;2023-03-03T12:13:06;100287.77;;;22.56;26.42
61436;BME280;47304;47.456;19.160;2023-03-03T12:15:44;100286.89;;;21.56;27.51
61436;BME280;47304;47.456;19.160;2023-03-03T12:31:32;100280.49;;;18.07;33.65
61436;BME280;47304;47.456;19.160;2023-03-03T12:34:04;100277.84;;;17.61;34.37
61436;BME280;47304;47.456;19.160;2023-03-03T12:42:11;100273.73;;;16.82;36.34
61436;BME280;47304;47.456;19.160;2023-03-03T12:47:32;100268.97;;;16.49;37.24
61436;BME280;47304;47.456;19.160;2023-03-03T13:06:30;100267.22;;;16.00;38.80
61436;BME280;47304;47.456;19.160;2023-03-03T13:19:40;100255.25;;;16.20;38.36
61436;BME280;47304;47.456;19.160;2023-03-03T13:22:16;100253.67;;;16.19;38.19
61436;BME280;47304;47.456;19.160;2023-03-03T13:25:40;100254.59;;;16.25;38.45
61436;BME280;47304;47.456;19.160;2023-03-03T13:30:49;100247.21;;;16.02;38.26
61436;BME280;47304;47.456;19.160;2023-03-03T13:33:29;100241.80;;;15.92;38.35
61436;BME280;47304;47.456;19.160;2023-03-03T13:36:00;100242.75;;;15.65;38.40
61436;BME280;47304;47.456;19.160;2023-03-03T13:38:34;100240.82;;;15.42;39.28
61436;BME280;47304;47.456;19.160;2023-03-03T13:51:52;100234.65;;;14.55;41.50
61436;BME280;47304;47.456;19.160;2023-03-03T13:54:47;100225.73;;;14.40;42.05
61436;BME280;47304;47.456;19.160;2023-03-03T14:05:02;100228.34;;;14.03;42.81
61436;BME280;47304;47.456;19.160;2023-03-03T14:07:42;100227.65;;;13.92;42.99
61436;BME280;47304;47.456;19.160;2023-03-03T14:10:18;100223.43;;;13.80;43.38
61436;BME280;47304;47.456;19.160;2023-03-03T14:16:04;100218.70;;;13.67;43.67
61436;BME280;47304;47.456;19.160;2023-03-03T14:18:53;100217.02;;;13.73;43.84
61436;BME280;47304;47.456;19.160;2023-03-03T14:21:27;100214.30;;;13.78;43.86
61436;BME280;47304;47.456;19.160;2023-03-03T14:23:59;100208.82;;;13.80;43.61
61436;BME280;47304;47.456;19.160;2023-03-03T14:26:29;100203.30;;;13.72;43.84
61436;BME280;47304;47.456;19.160;2023-03-03T14:29:31;100199.14;;;13.69;43.74
61436;BME280;47304;47.456;19.160;2023-03-03T14:32:00;100200.23;;;13.67;43.98
61436;BME280;47304;47.456;19.160;2023-03-03T14:34:37;100198.77;;;13.59;43.90
61436;BME280;47304;47.456;19.160;2023-03-03T14:37:41;100196.96;;;13.50;44.50
61436;BME280;47304;47.456;19.160;2023-03-03T14:42:45;100192.46;;;13.18;44.87
61436;BME280;47304;47.456;19.160;2023-03-03T14:45:20;100187.36;;;13.06;45.17
61436;BME280;47304;47.456;19.160;2023-03-03T14:47:56;100181.98;;;13.01;45.33
61436;BME280;47304;47.456;19.160;2023-03-03T14:53:09;100187.94;;;12.75;45.89
61436;BME280;47304;47.456;19.160;2023-03-03T14:55:38;100186.64;;;12.65;45.94
61436;BME280;47304;47.456;19.160;2023-03-03T14:58:33;100188.98;;;12.60;46.31
61436;BME280;47304;47.456;19.160;2023-03-03T15:01:35;100190.59;;;12.59;46.25
61436;BME280;47304;47.456;19.160;2023-03-03T15:04:06;100192.59;;;12.52;46.37
61436;BME280;47304;47.456;19.160;2023-03-03T15:06:40;100190.23;;;12.43;46.52
61436;BME280;47304;47.456;19.160;2023-03-03T15:09:27;100191.02;;;12.35;46.49
61436;BME280;47304;47.456;19.160;2023-03-03T15:11:56;100190.02;;;12.29;46.68
61436;BME280;47304;47.456;19.160;2023-03-03T15:14:44;100190.90;;;12.28;46.57
61436;BME280;47304;47.456;19.160;2023-03-03T15:22:47;100193.40;;;12.26;47.19
61436;BME280;47304;47.456;19.160;2023-03-03T15:25:23;100201.20;;;12.18;47.54
61436;BME280;47304;47.456;19.160;2023-03-03T15:28:24;100200.60;;;12.07;47.97
61436;BME280;47304;47.456;19.160;2023-03-03T15:31:05;100207.88;;;11.97;48.22
61436;BME280;47304;47.456;19.160;2023-03-03T15:36:38;100213.63;;;11.79;45.16
61436;BME280;47304;47.456;19.160;2023-03-03T15:39:31;100212.48;;;11.69;44.13
61436;BME280;47304;47.456;19.160;2023-03-03T15:44:55;100209.63;;;11.50;43.68
61436;BME280;47304;47.456;19.160;2023-03-03T16:01:50;100222.29;;;11.14;43.90
61436;BME280;47304;47.456;19.160;2023-03-03T16:04:21;100219.70;;;11.05;43.81
61436;BME280;47304;47.456;19.160;2023-03-03T16:14:57;100234.52;;;10.78;43.95
61436;BME280;47304;47.456;19.160;2023-03-03T16:17:53;100235.62;;;10.70;43.83
61436;BME280;47304;47.456;19.160;2023-03-03T16:23:19;100244.06;;;10.51;44.31
61436;BME280;47304;47.456;19.160;2023-03-03T16:26:04;100245.48;;;10.42;44.48
61436;BME280;47304;47.456;19.160;2023-03-03T16:36:33;100252.84;;;10.08;44.70
61436;BME280;47304;47.456;19.160;2023-03-03T16:39:10;100253.37;;;10.00;45.06
61436;BME280;47304;47.456;19.160;2023-03-03T16:42:23;100261.77;;;9.93;45.07
61436;BME280;47304;47.456;19.160;2023-03-03T16:56:22;100271.16;;;9.60;46.45
61436;BME280;47304;47.456;19.160;2023-03-03T17:06:56;100283.49;;;9.27;46.80
61436;BME280;47304;47.456;19.160;2023-03-03T17:09:46;100283.46;;;9.19;47.30
61436;BME280;47304;47.456;19.160;2023-03-03T17:12:41;100289.20;;;9.11;47.50
61436;BME280;47304;47.456;19.160;2023-03-03T17:18:35;100295.59;;;8.94;47.94
61436;BME280;47304;47.456;19.160;2023-03-03T17:20:46;100296.42;;;8.85;48.22
61436;BME280;47304;47.456;19.160;2023-03-03T17:24:09;100301.63;;;8.78;48.31
61436;BME280;47304;47.456;19.160;2023-03-03T17:26:37;100303.48;;;8.68;48.68